Time;durP1;ratioP1;P1;durP2;ratioP2;P2;SDS_P1;SDS_P2;PMS_P1;PMS_P2;Temp;Humidity;BMP_temperature;BMP_pressure;BME280_temperature;BME280_humidity;BME280_pressure;Samples;Min_cycle;Max_cycle;Signal;HPM_P1;HPM_P2
2022/09/15 00:02:00;;;;;;;17.85;9.57;;;;;;;13.65;100.00;100548.31;5072149;28;20137;-75
2022/09/15 00:04:28;;;;;;;18.20;10.73;;;;;;;13.67;100.00;100544.53;5105805;28;20043;-74
2022/09/15 00:06:53;;;;;;;16.80;10.05;;;;;;;13.63;100.00;100550.50;5089685;28;20033;-75
2022/09/15 00:09:18;;;;;;;14.32;9.98;;;;;;;13.61;100.00;100547.19;5092695;28;20464;-75
2022/09/15 00:11:44;;;;;;;16.45;10.23;;;;;;;13.58;100.00;100536.00;5115856;28;20019;-75
2022/09/15 00:14:09;;;;;;;17.00;10.43;;;;;;;13.54;100.00;100543.84;5097557;28;20024;-75
2022/09/15 00:16:35;;;;;;;14.13;10.07;;;;;;;13.51;100.00;100549.75;5100906;28;20028;-75
2022/09/15 00:19:01;;;;;;;14.50;10.50;;;;;;;13.52;100.00;100554.13;5094369;28;20406;-74
2022/09/15 00:21:30;;;;;;;15.38;10.13;;;;;;;13.45;100.00;100548.06;5095037;28;20016;-75
2022/09/15 00:23:57;;;;;;;16.98;11.10;;;;;;;13.47;100.00;100540.50;5100097;28;20011;-74
2022/09/15 00:26:26;;;;;;;17.77;11.50;;;;;;;13.44;100.00;100541.00;5084243;28;20457;-75
2022/09/15 00:28:51;;;;;;;16.65;11.40;;;;;;;13.45;100.00;100542.63;5091397;28;20051;-75
2022/09/15 00:31:19;;;;;;;14.82;11.60;;;;;;;13.46;100.00;100538.84;5094942;28;20016;-74
2022/09/15 00:33:49;;;;;;;21.05;11.63;;;;;;;13.43;100.00;100523.84;5094097;28;20035;-75
2022/09/15 00:36:16;;;;;;;17.38;11.95;;;;;;;13.41;100.00;100525.19;5084124;28;20654;-75
2022/09/15 00:38:42;;;;;;;16.65;10.80;;;;;;;13.41;100.00;100530.63;5077560;28;20032;-75
2022/09/15 00:41:09;;;;;;;18.95;11.80;;;;;;;13.38;100.00;100523.78;5095151;28;20032;-75
2022/09/15 00:43:55;;;;;;;22.50;12.85;;;;;;;13.42;100.00;100533.09;5093418;28;20117;-74
2022/09/15 00:46:32;;;;;;;19.80;11.50;;;;;;;13.41;100.00;100528.72;5072555;28;20043;-74
2022/09/15 00:49:12;;;;;;;17.15;11.93;;;;;;;13.41;100.00;100534.16;5079343;28;20028;-74
2022/09/15 00:51:37;;;;;;;17.55;12.50;;;;;;;13.41;100.00;100542.31;5094642;28;20044;-74
2022/09/15 00:54:06;;;;;;;19.50;12.27;;;;;;;13.37;100.00;100527.56;5094679;28;20103;-75
2022/09/15 00:56:35;;;;;;;24.58;12.50;;;;;;;13.40;100.00;100542.56;5093725;28;20028;-75
2022/09/15 00:59:05;;;;;;;18.70;11.77;;;;;;;13.39;100.00;100538.19;5095840;28;20461;-73
2022/09/15 01:01:31;;;;;;;19.50;12.35;;;;;;;13.39;100.00;100538.19;5111461;28;20050;-75
2022/09/15 01:03:57;;;;;;;17.48;12.65;;;;;;;13.39;100.00;100539.03;5096525;28;20044;-75
2022/09/15 01:06:26;;;;;;;17.50;12.13;;;;;;;13.40;100.00;100535.22;5084177;28;20484;-74
2022/09/15 01:09:13;;;;;;;21.38;12.05;;;;;;;13.38;100.00;100528.41;5075044;28;20035;-74
2022/09/15 01:11:40;;;;;;;19.85;12.75;;;;;;;13.39;100.00;100535.47;5094252;28;20487;-74
2022/09/15 01:14:05;;;;;;;19.08;12.90;;;;;;;13.38;100.00;100539.28;5094062;28;20024;-74
2022/09/15 01:16:36;;;;;;;22.27;12.32;;;;;;;13.42;100.00;100537.69;5081572;28;20504;-74
2022/09/15 01:19:36;;;;;;;20.50;12.52;;;;;;;13.43;100.00;100531.19;5075775;28;20042;-75
2022/09/15 01:22:04;;;;;;;19.23;12.88;;;;;;;13.47;100.00;100526.91;5076384;28;20032;-74
2022/09/15 01:24:29;;;;;;;17.27;12.88;;;;;;;13.48;100.00;100528.53;5075688;28;20097;-74
2022/09/15 01:27:06;;;;;;;17.98;13.27;;;;;;;13.51;100.00;100529.94;5093336;28;20060;-75
2022/09/15 01:30:01;;;;;;;19.83;13.18;;;;;;;13.56;100.00;100535.44;5093025;28;20060;-74
2022/09/15 01:36:00;;;;;;;19.38;12.85;;;;;;;13.60;100.00;100533.84;5093196;28;20089;-75
2022/09/15 01:38:43;;;;;;;18.40;12.77;;;;;;;13.60;100.00;100528.41;5073221;28;20117;-75
2022/09/15 01:41:15;;;;;;;20.13;12.65;;;;;;;13.60;100.00;100537.41;5072599;28;20024;-74
2022/09/15 01:43:58;;;;;;;21.23;12.63;;;;;;;13.61;100.00;100530.06;5072138;28;20111;-74
2022/09/15 01:46:28;;;;;;;16.50;12.23;;;;;;;13.58;100.00;100531.38;5084603;28;20024;-74
2022/09/15 01:48:55;;;;;;;19.33;12.57;;;;;;;13.65;100.00;100540.19;5094115;28;20031;-75
2022/09/15 01:51:24;;;;;;;17.50;11.70;;;;;;;13.63;100.00;100534.19;5092657;28;20077;-74
2022/09/15 01:53:51;;;;;;;20.52;12.77;;;;;;;13.62;100.00;100532.53;5093439;28;20417;-74
2022/09/15 01:56:17;;;;;;;19.17;12.40;;;;;;;13.61;100.00;100535.50;5082019;28;20024;-74
2022/09/15 01:58:42;;;;;;;19.50;12.48;;;;;;;13.59;100.00;100535.75;5073533;28;20028;-74
2022/09/15 02:01:25;;;;;;;17.63;12.02;;;;;;;13.59;100.00;100535.75;5073628;28;20047;-75
2022/09/15 02:03:55;;;;;;;16.75;11.68;;;;;;;13.52;100.00;100528.88;5093583;28;20097;-74
2022/09/15 02:06:28;;;;;;;14.63;11.52;;;;;;;13.51;100.00;100529.94;5080541;28;20029;-74
2022/09/15 02:09:01;;;;;;;16.48;12.00;;;;;;;13.57;100.00;100537.91;5071978;28;20051;-75
2022/09/15 02:11:27;;;;;;;19.65;12.73;;;;;;;13.56;100.00;100524.56;5080174;28;20036;-74
2022/09/15 02:14:17;;;;;;;15.23;11.75;;;;;;;13.61;100.00;100530.88;5093462;28;20024;-74
2022/09/15 02:16:48;;;;;;;17.20;12.13;;;;;;;13.56;100.00;100533.53;5083366;28;20032;-74
2022/09/15 02:19:30;;;;;;;19.85;12.75;;;;;;;13.57;100.00;100529.75;5072839;28;20029;-74
2022/09/15 02:22:06;;;;;;;19.23;13.32;;;;;;;13.56;100.00;100528.09;5084076;28;20114;-74
2022/09/15 02:24:39;;;;;;;17.92;12.18;;;;;;;13.55;100.00;100531.88;5093118;28;20031;-74
2022/09/15 02:27:10;;;;;;;16.23;12.18;;;;;;;13.53;100.00;100525.88;5075365;28;20047;-75
2022/09/15 02:29:36;;;;;;;19.25;12.45;;;;;;;13.52;100.00;100528.88;5072364;28;20035;-74
2022/09/15 02:32:05;;;;;;;16.55;12.25;;;;;;;13.47;100.00;100526.91;5082309;28;20030;-75
2022/09/15 02:34:35;;;;;;;17.13;12.40;;;;;;;13.46;100.00;100533.41;5076460;28;20461;-74
2022/09/15 02:37:03;;;;;;;18.38;11.75;;;;;;;13.45;100.00;100527.16;5088773;28;20027;-75
2022/09/15 02:39:33;;;;;;;18.23;12.45;;;;;;;13.45;100.00;100529.88;5092476;28;20032;-74
2022/09/15 02:42:01;;;;;;;16.73;12.35;;;;;;;13.43;100.00;100525.75;5090696;28;20047;-74
2022/09/15 02:44:29;;;;;;;16.13;11.65;;;;;;;13.44;100.00;100528.22;5111650;28;20102;-74
2022/09/15 02:46:56;;;;;;;17.00;12.23;;;;;;;13.42;100.00;100532.25;5113026;28;20035;-75
2022/09/15 02:49:21;;;;;;;16.92;11.40;;;;;;;13.39;100.00;100528.16;5113246;28;20024;-74
2022/09/15 02:51:47;;;;;;;21.10;11.77;;;;;;;13.36;100.00;100531.38;5113064;28;20024;-75
2022/09/15 02:54:12;;;;;;;17.40;11.82;;;;;;;13.36;100.00;100527.81;5088870;28;20028;-74
2022/09/15 02:56:38;;;;;;;19.05;12.00;;;;;;;13.33;100.00;100526.44;5087283;28;20020;-74
2022/09/15 02:59:03;;;;;;;16.80;11.90;;;;;;;13.27;100.00;100525.53;5072528;28;20472;-74
2022/09/15 03:01:33;;;;;;;21.00;11.55;;;;;;;13.27;100.00;100525.53;5068920;28;20127;-75
2022/09/15 03:04:00;;;;;;;16.67;11.50;;;;;;;13.25;100.00;100537.72;5086462;28;20043;-75
2022/09/15 03:06:29;;;;;;;14.48;12.00;;;;;;;13.20;100.00;100533.03;5090950;28;20024;-74
2022/09/15 03:08:57;;;;;;;17.77;12.00;;;;;;;13.23;100.00;100539.88;5092657;28;20024;-74
2022/09/15 03:11:24;;;;;;;16.33;12.02;;;;;;;13.19;100.00;100538.72;5092397;28;20156;-75
2022/09/15 03:13:57;;;;;;;15.80;12.10;;;;;;;13.15;100.00;100532.13;5090188;28;20035;-74
2022/09/15 03:16:23;;;;;;;21.88;12.00;;;;;;;13.11;100.00;100538.06;5092362;28;20027;-75
2022/09/15 03:18:49;;;;;;;17.60;11.88;;;;;;;13.07;100.00;100539.66;5092064;28;20099;-75
2022/09/15 03:21:16;;;;;;;19.63;12.82;;;;;;;13.09;100.00;100547.56;5092683;28;20162;-75
2022/09/15 03:23:41;;;;;;;17.85;12.60;;;;;;;13.08;100.00;100545.91;5098307;28;20489;-75
2022/09/15 03:26:08;;;;;;;19.27;11.63;;;;;;;13.09;100.00;100551.06;5111245;28;20047;-74
2022/09/15 03:28:34;;;;;;;22.25;11.98;;;;;;;13.09;100.00;100551.06;5112353;28;20027;-75
2022/09/15 03:31:00;;;;;;;17.27;12.00;;;;;;;13.04;100.00;100552.88;5111493;28;20015;-75
2022/09/15 03:33:25;;;;;;;16.80;11.98;;;;;;;13.06;100.00;100548.88;5099012;28;20418;-75
2022/09/15 03:35:51;;;;;;;14.98;11.68;;;;;;;13.10;100.00;100560.03;5091953;28;20022;-74
2022/09/15 03:38:17;;;;;;;17.98;12.20;;;;;;;13.11;100.00;100559.78;5092442;28;20510;-74
2022/09/15 03:40:43;;;;;;;20.80;12.57;;;;;;;13.12;100.00;100550.56;5090411;28;20028;-74
2022/09/15 03:43:11;;;;;;;17.10;11.75;;;;;;;13.12;100.00;100560.63;5089301;28;20061;-74
2022/09/15 03:45:37;;;;;;;16.15;11.88;;;;;;;13.19;100.00;100566.69;5092142;28;20449;-75
2022/09/15 03:48:04;;;;;;;16.52;12.38;;;;;;;13.17;100.00;100568.84;5091907;28;20528;-74
2022/09/15 03:50:30;;;;;;;18.52;12.30;;;;;;;13.16;100.00;100567.19;5092017;28;20077;-74
2022/09/15 03:52:55;;;;;;;17.27;12.73;;;;;;;13.12;100.00;100557.91;5090051;28;20419;-74
2022/09/15 03:55:20;;;;;;;17.85;12.15;;;;;;;13.08;100.00;100559.47;5091912;28;20055;-74
2022/09/15 03:57:48;;;;;;;16.65;12.02;;;;;;;13.06;100.00;100556.19;5091709;28;20020;-74
2022/09/15 04:00:14;;;;;;;16.77;12.63;;;;;;;13.03;100.00;100562.09;5092218;28;20024;-75
2022/09/15 04:02:39;;;;;;;16.52;12.30;;;;;;;12.97;100.00;100558.50;5075990;28;20051;-75
2022/09/15 04:05:05;;;;;;;21.00;12.55;;;;;;;12.97;100.00;100552.22;5089496;28;20028;-75
2022/09/15 04:07:30;;;;;;;23.33;12.75;;;;;;;13.01;100.00;100564.25;5093875;28;20046;-75
2022/09/15 04:09:56;;;;;;;18.90;13.20;;;;;;;12.97;100.00;100561.22;5094233;28;20070;-74
2022/09/15 04:12:21;;;;;;;20.60;13.25;;;;;;;13.02;100.00;100561.28;5095090;28;20028;-75
2022/09/15 04:14:46;;;;;;;19.52;12.10;;;;;;;13.04;100.00;100553.69;5107000;28;20031;-74
2022/09/15 04:17:14;;;;;;;14.98;12.23;;;;;;;13.05;100.00;100551.81;5116150;28;20041;-75
2022/09/15 04:19:40;;;;;;;16.85;12.43;;;;;;;13.10;100.00;100555.44;5114487;28;20023;-74
2022/09/15 04:22:05;;;;;;;15.18;11.88;;;;;;;13.09;100.00;100552.97;5114433;28;20058;-75
2022/09/15 04:24:31;;;;;;;17.58;11.77;;;;;;;13.15;100.00;100559.28;5077560;28;20056;-75
2022/09/15 04:26:56;;;;;;;15.35;11.95;;;;;;;13.14;100.00;100563.09;5075011;28;20029;-75
2022/09/15 04:29:22;;;;;;;19.25;12.40;;;;;;;13.15;100.00;100557.41;5075209;28;20016;-75
2022/09/15 04:31:47;;;;;;;15.60;11.80;;;;;;;13.15;100.00;100560.13;5075052;28;20028;-74
2022/09/15 04:34:13;;;;;;;18.40;11.75;;;;;;;13.20;100.00;100562.91;5088854;28;20112;-75
2022/09/15 04:36:38;;;;;;;16.75;11.93;;;;;;;13.19;100.00;100553.09;5095185;28;20097;-75
2022/09/15 04:39:05;;;;;;;13.32;11.38;;;;;;;13.15;100.00;100556.56;5094984;28;20035;-75
2022/09/15 04:41:32;;;;;;;21.55;12.10;;;;;;;13.20;100.00;100560.19;5093971;28;20475;-75
2022/09/15 04:43:58;;;;;;;19.08;12.30;;;;;;;13.22;100.00;100563.47;5089798;28;20062;-74
2022/09/15 04:46:24;;;;;;;18.65;11.45;;;;;;;13.24;100.00;100561.34;5094154;28;20063;-75
2022/09/15 04:48:49;;;;;;;17.60;12.77;;;;;;;13.23;100.00;100565.13;5094937;28;20020;-75
2022/09/15 04:51:20;;;;;;;16.75;11.75;;;;;;;13.23;100.00;100564.31;5095164;28;20020;-75
2022/09/15 04:53:46;;;;;;;15.23;11.90;;;;;;;13.24;100.00;100571.38;5089675;28;20032;-75
2022/09/15 04:56:15;;;;;;;15.85;12.43;;;;;;;13.21;100.00;100569.16;5094827;28;20383;-75
2022/09/15 04:58:46;;;;;;;16.13;11.88;;;;;;;13.17;100.00;100557.16;5094762;28;20078;-75
2022/09/15 05:01:17;;;;;;;16.20;12.30;;;;;;;13.22;100.00;100571.63;5086452;28;20044;-74
2022/09/15 05:03:43;;;;;;;;;;;;;;;13.35;100.00;100570.50;5082989;28;20298;-74
2022/09/15 05:06:11;;;;;;;17.85;12.05;;;;;;;13.24;100.00;100566.78;5075502;28;19919;-74
2022/09/15 05:08:37;;;;;;;18.95;12.32;;;;;;;13.26;100.00;100555.66;5074381;28;20046;-74
2022/09/15 05:11:05;;;;;;;18.52;12.48;;;;;;;13.27;100.00;100554.56;5074206;28;20099;-74
2022/09/15 05:13:32;;;;;;;15.63;12.27;;;;;;;13.23;100.00;100559.69;5080449;28;20035;-75
2022/09/15 05:16:18;;;;;;;17.35;12.70;;;;;;;13.28;100.00;100554.31;5094559;28;20028;-75
2022/09/15 05:18:45;;;;;;;18.17;11.70;;;;;;;13.23;100.00;100554.25;5092490;28;20480;-75
2022/09/15 05:21:13;;;;;;;20.38;12.55;;;;;;;13.23;100.00;100546.13;5093125;28;20686;-75
2022/09/15 05:23:38;;;;;;;16.65;12.05;;;;;;;13.25;100.00;100546.66;5092125;28;20039;-75
2022/09/15 05:26:07;;;;;;;17.83;12.45;;;;;;;13.27;100.00;100551.84;5111978;28;20023;-75
2022/09/15 05:28:34;;;;;;;19.52;12.52;;;;;;;13.25;100.00;100554.00;5114709;28;20051;-74
2022/09/15 05:30:59;;;;;;;19.17;12.82;;;;;;;13.25;100.00;100562.16;5113050;28;20023;-75
2022/09/15 05:33:24;;;;;;;18.33;12.30;;;;;;;13.26;100.00;100548.31;5105294;28;20036;-74
2022/09/15 05:35:56;;;;;;;20.58;12.25;;;;;;;13.27;100.00;100558.13;5093875;28;20024;-74
2022/09/15 05:38:22;;;;;;;17.42;12.48;;;;;;;13.28;100.00;100567.09;5092857;28;20044;-75
2022/09/15 05:40:47;;;;;;;20.48;13.15;;;;;;;13.28;100.00;100576.06;5093862;28;20516;-74
2022/09/15 05:43:14;;;;;;;16.25;12.82;;;;;;;13.31;100.00;100577.47;5108638;28;20047;-74
2022/09/15 05:45:42;;;;;;;15.25;12.23;;;;;;;13.30;100.00;100582.09;5092721;28;20396;-75
2022/09/15 05:48:11;;;;;;;20.30;13.35;;;;;;;13.27;100.00;100585.31;5093682;28;20028;-75
2022/09/15 05:50:38;;;;;;;21.52;13.68;;;;;;;13.27;100.00;100584.47;5093667;28;20024;-74
2022/09/15 05:53:04;;;;;;;18.00;13.40;;;;;;;13.29;100.00;100587.78;5090009;28;20029;-73
2022/09/15 05:55:30;;;;;;;19.08;13.05;;;;;;;13.27;100.00;100585.31;5092916;28;20036;-74
2022/09/15 05:57:55;;;;;;;18.10;13.02;;;;;;;13.30;100.00;100595.69;5087785;28;20032;-74
2022/09/15 06:00:20;;;;;;;19.60;13.60;;;;;;;13.30;100.00;100598.41;5092233;28;20028;-74
2022/09/15 06:02:46;;;;;;;18.42;13.77;;;;;;;13.27;100.00;100588.03;5075330;28;20040;-73
2022/09/15 06:05:12;;;;;;;21.15;14.05;;;;;;;13.34;100.00;100589.78;5093365;28;20024;-73
2022/09/15 06:07:38;;;;;;;16.17;13.68;;;;;;;13.29;100.00;100591.31;5081641;28;20066;-74
2022/09/15 06:10:04;;;;;;;19.20;13.38;;;;;;;13.36;100.00;100603.91;5073144;28;20433;-74
2022/09/15 06:12:29;;;;;;;18.17;14.05;;;;;;;13.35;100.00;100603.09;5055277;28;20021;-74
2022/09/15 06:14:55;;;;;;;19.02;14.02;;;;;;;13.39;100.00;100611.56;5090885;28;20180;-74
2022/09/15 06:17:22;;;;;;;19.30;14.30;;;;;;;13.39;100.00;100611.56;5084811;28;20489;-75
2022/09/15 06:19:47;;;;;;;19.48;14.00;;;;;;;13.43;100.00;100610.81;5054947;28;20036;-74
2022/09/15 06:22:12;;;;;;;24.45;13.50;;;;;;;13.41;100.00;100609.44;5072796;28;20381;-74
2022/09/15 06:24:38;;;;;;;19.75;13.98;;;;;;;13.46;100.00;100617.66;5070705;28;20059;-74
2022/09/15 06:27:03;;;;;;;16.75;13.48;;;;;;;13.44;100.00;100617.91;5087052;28;20017;-76
2022/09/15 06:29:30;;;;;;;22.08;14.60;;;;;;;13.49;100.00;100621.78;5072998;28;20472;-76
2022/09/15 06:32:01;;;;;;;19.13;13.73;;;;;;;13.52;100.00;100622.09;5054238;28;20492;-74
2022/09/15 06:34:26;;;;;;;22.73;13.75;;;;;;;13.57;100.00;100627.63;5072478;28;20032;-73
2022/09/15 06:36:54;;;;;;;18.92;14.13;;;;;;;13.59;100.00;100630.09;5074198;28;20166;-73
2022/09/15 06:39:20;;;;;;;20.63;14.90;;;;;;;13.64;100.00;100630.16;5092729;28;20027;-73
2022/09/15 06:41:45;;;;;;;23.20;13.95;;;;;;;13.65;100.00;100624.47;5091489;28;20113;-74
2022/09/15 06:44:11;;;;;;;20.90;14.38;;;;;;;13.67;100.00;100626.13;5103941;28;20102;-74
2022/09/15 06:46:37;;;;;;;22.63;14.70;;;;;;;13.65;100.00;100629.91;5110954;28;20508;-75
2022/09/15 06:49:02;;;;;;;21.80;14.63;;;;;;;13.66;100.00;100630.72;5072518;28;20021;-73
2022/09/15 06:51:30;;;;;;;19.50;14.48;;;;;;;13.71;100.00;100632.69;5072239;28;20018;-72
2022/09/15 06:53:58;;;;;;;20.17;14.00;;;;;;;13.72;100.00;100642.50;5072226;28;20028;-76
2022/09/15 06:56:24;;;;;;;20.10;14.13;;;;;;;13.74;100.00;100637.63;5054597;28;20016;-74
2022/09/15 06:58:49;;;;;;;19.10;14.38;;;;;;;13.75;100.00;100636.53;5089827;28;20115;-76
2022/09/15 07:01:33;;;;;;;19.92;14.40;;;;;;;13.77;100.00;100642.56;5088155;28;20059;-75
2022/09/15 07:04:00;;;;;;;20.35;14.35;;;;;;;13.78;100.00;100660.53;5082063;28;20373;-74
2022/09/15 07:06:31;;;;;;;19.63;14.55;;;;;;;13.79;100.00;100651.31;5072467;28;20522;-73
2022/09/15 07:09:01;;;;;;;19.40;14.50;;;;;;;13.82;100.00;100661.66;5090639;28;20081;-74
2022/09/15 07:11:27;;;;;;;20.45;14.55;;;;;;;13.82;100.00;100662.47;5092693;28;20475;-77
2022/09/15 07:14:01;;;;;;;20.48;14.00;;;;;;;13.85;100.00;100653.00;5090922;28;20115;-77
2022/09/15 07:16:34;;;;;;;19.23;13.90;;;;;;;13.92;100.00;100664.53;5092222;28;20099;-78
2022/09/15 07:19:08;;;;;;;22.95;14.10;;;;;;;13.96;100.00;100662.13;5104429;28;20383;-75
2022/09/15 07:21:34;;;;;;;19.45;13.45;;;;;;;14.03;100.00;100667.41;5112683;28;20349;-74
2022/09/15 07:24:09;;;;;;;20.15;14.45;;;;;;;14.10;100.00;100671.56;5101040;28;20065;-75
2022/09/15 07:30:28;;;;;;;21.02;13.60;;;;;;;14.22;100.00;100668.72;5049118;28;20036;-79
2022/09/15 07:39:37;;;;;;;18.65;12.40;;;;;;;14.31;100.00;100674.53;5055547;28;20270;-78
2022/09/15 07:42:19;;;;;;;20.70;11.88;;;;;;;14.36;100.00;100677.31;5109692;28;20460;-79
2022/09/15 07:45:39;;;;;;;18.50;12.38;;;;;;;14.45;100.00;100685.88;5079870;28;20116;-78
2022/09/15 07:48:13;;;;;;;21.73;12.27;;;;;;;14.42;100.00;100673.56;5107745;28;20036;-81
2022/09/15 07:50:58;;;;;;;19.38;12.40;;;;;;;14.46;100.00;100672.00;5095052;28;20031;-77
2022/09/15 07:54:02;;;;;;;22.83;12.55;;;;;;;14.45;100.00;100664.91;5089257;28;20364;-77
2022/09/15 07:57:09;;;;;;;;;;;;;;;;;;;;;
2022/09/15 08:00:42;;;;;;;18.20;13.20;;;;;;;14.53;100.00;100683.50;5080216;28;20350;-79
2022/09/15 08:06:33;;;;;;;18.40;12.27;;;;;;;14.57;100.00;100689.25;5029641;28;20049;-78
2022/09/15 08:09:34;;;;;;;20.88;12.40;;;;;;;14.59;100.00;100691.72;5053032;28;20041;-76
2022/09/15 08:12:03;;;;;;;20.02;11.45;;;;;;;14.59;100.00;100695.25;5077401;28;20025;-78
2022/09/15 08:14:41;;;;;;;15.00;10.38;;;;;;;14.62;100.00;100691.25;5087987;28;20028;-80
2022/09/15 08:17:26;;;;;;;18.08;11.00;;;;;;;14.66;100.00;100695.09;5095118;28;20027;-78
2022/09/15 08:19:52;;;;;;;18.10;9.82;;;;;;;14.63;100.00;100695.59;5091470;28;20465;-76
2022/09/15 08:22:20;;;;;;;15.43;10.07;;;;;;;14.68;100.00;100701.13;5072086;28;20043;-75
2022/09/15 08:24:45;;;;;;;16.70;10.88;;;;;;;14.74;100.00;100704.72;5092484;28;20042;-76
2022/09/15 08:27:13;;;;;;;18.92;10.60;;;;;;;14.77;100.00;100715.09;5093305;28;20020;-76
2022/09/15 08:29:42;;;;;;;15.23;8.85;;;;;;;14.77;100.00;100710.47;5093947;28;20480;-77
2022/09/15 08:32:07;;;;;;;14.75;10.02;;;;;;;14.79;100.00;100723.84;5107482;28;20028;-76
2022/09/15 08:34:48;;;;;;;20.50;10.98;;;;;;;14.84;100.00;100719.25;5077920;28;20346;-76
2022/09/15 08:37:39;;;;;;;17.00;10.93;;;;;;;14.86;100.00;100729.91;5074532;28;20415;-77
2022/09/15 08:40:12;;;;;;;16.45;9.57;;;;;;;14.85;100.00;100722.81;5071730;28;20297;-75
2022/09/15 08:49:40;;;;;;;21.45;9.43;;;;;;;14.89;100.00;100718.50;5074225;28;20074;-76
2022/09/15 08:52:49;;;;;;;;;;;;;;;;;;;;;
2022/09/15 08:56:04;;;;;;;14.20;8.15;;;;;;;14.94;100.00;100734.06;5073799;28;20025;-77
2022/09/15 08:58:37;;;;;;;15.25;8.88;;;;;;;14.91;100.00;100732.66;5082741;28;20028;-77
2022/09/15 09:01:10;;;;;;;12.90;8.77;;;;;;;14.89;100.00;100729.41;5081921;28;20081;-77
2022/09/15 09:04:13;;;;;;;14.95;9.43;;;;;;;14.99;100.00;100742.28;5094119;28;20044;-78
2022/09/15 09:07:00;;;;;;;13.85;9.40;;;;;;;15.06;100.00;100751.91;5110066;28;20047;-75
2022/09/15 09:09:50;;;;;;;18.88;9.88;;;;;;;15.09;100.00;100756.00;5094335;28;20031;-74
2022/09/15 09:12:15;;;;;;;15.80;9.35;;;;;;;15.12;100.00;100758.22;5087149;28;20034;-75
2022/09/15 09:16:10;;;;;;;15.38;8.30;;;;;;;15.18;100.00;100767.28;5096610;28;20098;-77
2022/09/15 09:25:39;;;;;;;18.30;7.43;;;;;;;15.36;100.00;100761.44;4990472;28;20037;-75
2022/09/15 09:34:58;;;;;;;10.07;4.88;;;;;;;15.48;100.00;100757.75;5014374;28;20028;-74
2022/09/15 09:47:45;;;;;;;12.60;4.45;;;;;;;15.33;100.00;100751.06;5063248;28;20135;-76
2022/09/15 09:57:13;;;;;;;16.60;5.00;;;;;;;15.39;100.00;100765.56;5043798;28;20056;-76
2022/09/15 09:59:47;;;;;;;12.43;5.82;;;;;;;15.37;100.00;100756.84;5014252;28;20029;-78
2022/09/15 10:02:26;;;;;;;13.20;5.97;;;;;;;15.37;100.00;100757.66;5040412;28;20049;-76
2022/09/15 10:08:23;;;;;;;11.88;6.68;;;;;;;15.33;100.00;100755.69;5030037;28;20079;-77
2022/09/15 10:11:17;;;;;;;15.48;7.05;;;;;;;15.40;100.00;100761.75;5029395;28;20442;-75
2022/09/15 10:27:40;;;;;;;9.32;3.38;;;;;;;15.36;100.00;100766.09;5093082;28;20066;-76
2022/09/15 10:30:11;;;;;;;10.52;3.53;;;;;;;15.35;100.00;100762.56;5091407;28;20046;-76
2022/09/15 10:33:14;;;;;;;12.00;3.72;;;;;;;15.37;100.00;100762.28;5090880;28;20031;-77
2022/09/15 10:40:04;;;;;;;7.63;3.10;;;;;;;15.33;100.00;100761.97;5049418;28;20288;-77
2022/09/15 10:43:18;;;;;;;14.57;3.58;;;;;;;15.35;100.00;100770.72;5049847;28;20033;-76
2022/09/15 10:49:26;;;;;;;6.40;2.70;;;;;;;15.37;100.00;100770.47;5056824;28;20024;-77
2022/09/15 10:55:43;;;;;;;;;;;;;;;15.52;100.00;100784.22;5063623;28;20475;-77
2022/09/15 10:58:27;;;;;;;;;;;;;;;15.49;100.00;100786.63;5085954;28;19908;-78
2022/09/15 11:01:16;;;;;;;;;;;;;;;15.46;100.00;100787.16;5086600;28;19908;-73
2022/09/15 11:04:05;;;;;;;;;;;;;;;15.48;100.00;100790.47;5079429;28;19935;-76
2022/09/15 11:06:33;;;;;;;;;;;;;;;15.53;100.00;100787.75;5052584;28;20337;-74
2022/09/15 11:09:13;;;;;;;;;;;;;;;15.57;100.00;100783.44;5087821;28;19956;-74
2022/09/15 11:11:41;;;;;;;;;;;;;;;15.58;100.00;100785.09;5083029;28;19955;-73
2022/09/15 11:14:19;;;;;;;;;;;;;;;15.70;100.00;100788.47;5090848;28;19908;-75
2022/09/15 11:17:03;;;;;;;;;;;;;;;15.79;100.00;100788.00;5090795;28;19908;-74
2022/09/15 11:19:43;;;;;;;;;;;;;;;15.77;100.00;100788.22;5089312;28;19954;-75
2022/09/15 11:22:17;;;;;;;;;;;;;;;15.82;100.00;100785.59;5078178;28;19912;-75
2022/09/15 11:24:55;;;;;;;;;;;;;;;15.87;100.00;100787.53;5071536;28;20272;-74
2022/09/15 11:27:39;;;;;;;;;;;;;;;15.83;100.00;100786.41;5081304;28;19912;-75
2022/09/15 11:30:08;;;;;;;;;;;;;;;15.86;100.00;100791.34;5092561;28;19931;-77
2022/09/15 11:32:36;;;;;;;;;;;;;;;15.86;100.00;100785.88;5097243;28;20437;-76
2022/09/15 11:35:25;;;;;;;;;;;;;;;15.88;100.00;100794.63;5081121;28;20280;-77
2022/09/15 11:37:53;;;;;;;;;;;;;;;15.96;100.00;100794.16;5088157;28;19949;-76
2022/09/15 11:40:32;;;;;;;;;;;;;;;15.93;100.00;100786.47;5090295;28;19977;-76
2022/09/15 11:43:02;;;;;;;;;;;;;;;16.02;100.00;100789.53;5091898;28;19939;-74
2022/09/15 11:45:31;;;;;;;;;;;;;;;16.09;100.00;100784.66;5092289;28;19904;-77
2022/09/15 11:48:02;;;;;;;;;;;;;;;16.12;100.00;100792.31;5091434;28;19908;-77
2022/09/15 11:50:36;;;;;;;;;;;;;;;16.21;100.00;100787.19;5090202;28;19907;-77
2022/09/15 11:53:24;;;;;;;;;;;;;;;16.20;100.00;100800.03;5096358;28;19912;-78
2022/09/15 11:55:52;;;;;;;;;;;;;;;16.23;100.00;100796.78;5072085;28;19919;-75
2022/09/15 11:58:33;;;;;;;;;;;;;;;16.24;100.00;100795.66;5093162;28;20313;-77
2022/09/15 12:01:07;;;;;;;;;;;;;;;16.30;100.00;100785.59;5097853;28;19915;-79
2022/09/15 12:03:43;;;;;;;;;;;;;;;16.46;100.00;100783.78;5106626;28;20008;-77
2022/09/15 12:15:39;;;;;;;;;;;;;;;16.68;100.00;100771.84;5071615;28;20359;-77
2022/09/15 12:18:36;;;;;;;;;;;;;;;16.73;100.00;100769.94;5086717;28;19919;-79
2022/09/15 12:21:12;;;;;;;;;;;;;;;16.80;100.00;100761.50;5096757;28;19908;-77
2022/09/15 12:23:54;;;;;;;;;;;;;;;16.84;100.00;100763.41;5107655;28;19919;-77
2022/09/15 12:26:23;;;;;;;;;;;;;;;16.97;100.00;100766.78;5091572;28;19903;-76
2022/09/15 13:50:16;;;;;;;7.18;2.05;;;;;;;17.76;61.26;100792.00;5074740;27;20753;-75
2022/09/15 13:52:59;;;;;;;4.88;1.30;;;;;;;17.69;57.94;100795.03;5069571;28;20036;-73
2022/09/15 13:55:27;;;;;;;6.93;1.25;;;;;;;17.66;57.87;100792.00;5049154;28;20025;-75
2022/09/15 13:58:01;;;;;;;4.22;1.27;;;;;;;17.65;59.59;100784.91;5061427;28;20047;-74
2022/09/15 14:00:43;;;;;;;1.63;1.00;;;;;;;17.68;61.04;100781.63;5066353;28;20035;-76
2022/09/15 14:03:12;;;;;;;4.95;1.30;;;;;;;17.65;58.81;100787.63;5068190;28;20045;-76
2022/09/15 14:05:37;;;;;;;4.22;1.30;;;;;;;17.58;57.80;100781.59;5069157;28;20027;-75
2022/09/15 14:08:18;;;;;;;5.28;1.17;;;;;;;17.56;58.75;100784.63;5067631;28;20028;-75
2022/09/15 14:10:59;;;;;;;4.68;1.20;;;;;;;17.45;58.98;100782.97;5049228;28;20036;-74
2022/09/15 14:13:26;;;;;;;;;;;;;;;17.47;62.20;100783.53;5052837;28;20035;-75
2022/09/15 14:16:03;;;;;;;5.10;1.27;;;;;;;17.36;60.30;100782.66;5081328;28;19920;-75
2022/09/15 14:18:30;;;;;;;5.10;1.55;;;;;;;17.37;60.56;100787.06;5048740;28;20025;-76
2022/09/15 14:21:03;;;;;;;4.10;1.70;;;;;;;17.31;60.04;100788.16;5049215;28;20041;-75
2022/09/15 14:23:30;;;;;;;3.83;1.23;;;;;;;17.32;57.27;100790.63;5058719;28;20017;-78
2022/09/15 14:26:02;;;;;;;3.92;1.15;;;;;;;17.18;61.18;100790.31;5067999;28;20062;-77
2022/09/15 14:28:31;;;;;;;6.60;1.25;;;;;;;17.14;58.58;100793.88;5083898;28;20025;-77
2022/09/15 14:31:05;;;;;;;5.22;1.45;;;;;;;17.06;59.36;100797.13;5057516;28;20033;-79
2022/09/15 14:33:54;;;;;;;4.95;1.20;;;;;;;17.03;61.44;100793.03;5084784;28;20025;-76
2022/09/15 14:36:24;;;;;;;9.52;1.60;;;;;;;16.98;62.63;100795.75;5013403;28;20485;-77